createdAt,value
2024-01-15T00:00:33.491Z,100.00
2024-01-15T00:04:21.156Z,100.00
2024-01-15T00:07:48.982Z,100.00
2024-01-15T00:11:16.445Z,100.00
2024-01-15T00:14:43.715Z,100.00
2024-01-15T00:18:11.149Z,100.00
2024-01-15T00:21:39.682Z,100.00
2024-01-15T00:25:08.090Z,100.00
2024-01-15T00:28:35.398Z,100.00
2024-01-15T00:32:02.665Z,100.00
2024-01-15T00:35:29.905Z,100.00
2024-01-15T00:38:57.260Z,100.00
2024-01-15T00:42:24.260Z,100.00
2024-01-15T00:45:51.378Z,100.00
2024-01-15T00:49:19.417Z,100.00
2024-01-15T00:52:46.992Z,100.00
2024-01-15T00:56:14.353Z,100.00
2024-01-15T00:59:41.794Z,100.00
2024-01-15T01:03:09.460Z,100.00
2024-01-15T01:06:36.693Z,100.00
2024-01-15T01:10:03.978Z,100.00
2024-01-15T01:13:31.257Z,100.00
2024-01-15T01:16:58.856Z,100.00
2024-01-15T01:20:26.199Z,100.00
2024-01-15T01:23:53.422Z,100.00
2024-01-15T01:27:20.319Z,100.00
2024-01-15T01:30:47.756Z,100.00
2024-01-15T01:34:18.872Z,100.00
2024-01-15T01:37:45.913Z,100.00
2024-01-15T01:41:12.663Z,100.00
2024-01-15T01:44:39.666Z,100.00
2024-01-15T01:48:07.946Z,100.00
2024-01-15T01:51:35.657Z,100.00
2024-01-15T01:55:04.445Z,100.00
2024-01-15T01:58:32.699Z,100.00
2024-01-15T02:01:59.613Z,100.00
2024-01-15T02:05:27.444Z,100.00
2024-01-15T02:08:54.869Z,100.00
2024-01-15T02:12:22.789Z,100.00
2024-01-15T02:15:50.137Z,100.00
2024-01-15T02:19:20.587Z,100.00
2024-01-15T02:22:47.858Z,100.00
2024-01-15T02:26:16.450Z,100.00
2024-01-15T02:29:43.751Z,100.00
2024-01-15T02:33:11.843Z,100.00
2024-01-15T02:36:39.509Z,100.00
2024-01-15T02:40:08.186Z,100.00
2024-01-15T02:43:37.820Z,100.00
2024-01-15T02:47:03.388Z,100.00
2024-01-15T02:50:30.376Z,100.00
2024-01-15T02:53:57.415Z,100.00
2024-01-15T02:57:24.238Z,100.00
2024-01-15T03:00:51.286Z,100.00
2024-01-15T03:04:18.212Z,100.00
2024-01-15T03:07:45.355Z,100.00
2024-01-15T03:11:12.321Z,100.00
2024-01-15T03:14:39.059Z,100.00
2024-01-15T03:18:06.901Z,100.00
2024-01-15T03:21:33.946Z,100.00
2024-01-15T03:25:00.979Z,100.00
2024-01-15T03:28:28.074Z,100.00
2024-01-15T03:31:54.940Z,100.00
2024-01-15T03:35:21.645Z,100.00
2024-01-15T03:38:48.496Z,100.00
2024-01-15T03:42:16.006Z,100.00
2024-01-15T03:45:42.891Z,100.00
2024-01-15T03:49:09.835Z,100.00
2024-01-15T03:52:37.359Z,100.00
2024-01-15T03:56:04.212Z,100.00
2024-01-15T03:59:31.226Z,100.00
2024-01-15T04:02:57.963Z,100.00
2024-01-15T04:06:25.114Z,100.00
2024-01-15T04:09:51.943Z,100.00
2024-01-15T04:13:18.766Z,100.00
2024-01-15T04:16:45.616Z,100.00
2024-01-15T04:20:14.026Z,100.00
2024-01-15T04:23:41.152Z,100.00
2024-01-15T04:27:09.305Z,100.00
2024-01-15T04:30:38.806Z,100.00
2024-01-15T04:34:04.177Z,100.00
2024-01-15T04:37:30.942Z,100.00
2024-01-15T04:40:58.595Z,100.00
2024-01-15T04:44:25.858Z,100.00
2024-01-15T04:47:52.892Z,100.00
2024-01-15T04:51:19.617Z,100.00
2024-01-15T04:54:46.606Z,100.00
2024-01-15T04:58:13.501Z,100.00
2024-01-15T05:01:40.308Z,100.00
2024-01-15T05:05:07.725Z,100.00
2024-01-15T05:08:34.478Z,100.00
2024-01-15T05:12:01.229Z,100.00
2024-01-15T05:15:28.131Z,100.00
2024-01-15T05:18:56.016Z,100.00
2024-01-15T05:22:22.859Z,100.00
2024-01-15T05:25:49.858Z,100.00
2024-01-15T05:29:17.026Z,100.00
2024-01-15T05:32:44.201Z,100.00
2024-01-15T05:36:11.633Z,100.00
2024-01-15T05:39:38.524Z,100.00
2024-01-15T05:43:05.423Z,100.00
2024-01-15T05:46:32.163Z,100.00
2024-01-15T05:50:00.513Z,100.00
2024-01-15T05:53:27.537Z,100.00
2024-01-15T05:56:54.265Z,100.00
2024-01-15T06:00:21.878Z,100.00
2024-01-15T06:03:48.865Z,100.00
2024-01-15T06:07:15.692Z,100.00
2024-01-15T06:10:42.495Z,100.00
2024-01-15T06:14:09.246Z,100.00
2024-01-15T06:17:36.223Z,100.00
2024-01-15T06:21:03.178Z,100.00
2024-01-15T06:24:29.960Z,100.00
2024-01-15T06:27:56.961Z,100.00
2024-01-15T06:31:23.922Z,100.00
2024-01-15T06:34:50.930Z,100.00
2024-01-15T06:38:17.901Z,100.00
2024-01-15T06:41:45.610Z,100.00
2024-01-15T06:45:13.445Z,100.00
2024-01-15T06:48:40.398Z,100.00
2024-01-15T06:52:08.610Z,100.00
2024-01-15T06:55:35.433Z,100.00
2024-01-15T06:59:02.344Z,100.00
2024-01-15T07:02:29.151Z,100.00
2024-01-15T07:05:55.964Z,100.00
2024-01-15T07:09:22.857Z,100.00
2024-01-15T07:12:49.902Z,100.00
2024-01-15T07:16:30.104Z,100.00
2024-01-15T07:20:04.844Z,100.00
2024-01-15T07:23:34.061Z,100.00
2024-01-15T07:27:00.895Z,100.00
2024-01-15T07:30:28.195Z,100.00
2024-01-15T07:33:55.143Z,100.00
2024-01-15T07:37:21.956Z,100.00
2024-01-15T07:40:50.675Z,99.93
2024-01-15T07:44:17.795Z,99.76
2024-01-15T07:47:45.559Z,99.54
2024-01-15T07:51:12.977Z,99.81
2024-01-15T07:54:39.843Z,99.42
2024-01-15T07:58:15.564Z,99.51
2024-01-15T08:01:43.833Z,99.32
2024-01-15T08:05:10.946Z,99.01
2024-01-15T08:08:37.971Z,98.96
2024-01-15T08:12:07.193Z,99.42
2024-01-15T08:15:34.115Z,99.62
2024-01-15T08:19:01.537Z,99.16
2024-01-15T08:22:30.250Z,99.63
2024-01-15T08:25:59.279Z,98.99
2024-01-15T08:29:26.091Z,99.22
2024-01-15T08:32:53.492Z,99.07
2024-01-15T08:36:20.594Z,99.07
2024-01-15T08:39:50.238Z,99.15
2024-01-15T08:43:18.293Z,99.53
2024-01-15T08:46:45.625Z,99.79
2024-01-15T08:50:13.549Z,99.53
2024-01-15T08:53:41.299Z,99.21
2024-01-15T08:57:12.879Z,99.08
2024-01-15T09:00:40.313Z,98.59
2024-01-15T09:04:07.779Z,98.25
2024-01-15T09:07:36.097Z,98.08
2024-01-15T09:11:04.181Z,98.02
2024-01-15T09:14:36.722Z,97.86
2024-01-15T09:18:08.386Z,97.67
2024-01-15T09:21:36.408Z,97.71
2024-01-15T09:25:04.678Z,98.53
2024-01-15T09:28:32.383Z,99.19
2024-01-15T09:32:00.627Z,99.67
2024-01-15T09:35:28.055Z,99.97
2024-01-15T09:38:55.817Z,99.92
2024-01-15T09:42:24.592Z,99.23
2024-01-15T09:45:53.603Z,98.34
2024-01-15T09:49:22.127Z,97.59
2024-01-15T09:52:53.648Z,96.34
2024-01-15T09:56:25.156Z,96.37
2024-01-15T09:59:55.527Z,95.78
2024-01-15T10:03:23.790Z,96.06
2024-01-15T10:07:03.241Z,96.50
2024-01-15T10:10:30.324Z,96.07
2024-01-15T10:14:00.091Z,95.16
2024-01-15T10:17:27.779Z,95.69
2024-01-15T10:20:55.126Z,95.21
2024-01-15T10:24:25.448Z,94.72
2024-01-15T10:28:04.454Z,94.21
2024-01-15T10:31:33.707Z,94.24
2024-01-15T10:35:04.113Z,93.78
2024-01-15T10:38:34.695Z,93.32
2024-01-15T10:42:01.825Z,92.99
2024-01-15T10:45:29.145Z,92.51
2024-01-15T10:48:56.324Z,92.17
2024-01-15T10:52:24.376Z,91.44
2024-01-15T10:55:52.681Z,91.24
2024-01-15T10:59:22.550Z,92.06
2024-01-15T11:02:50.153Z,92.10
2024-01-15T11:06:30.569Z,92.16
2024-01-15T11:09:59.772Z,92.30
2024-01-15T11:13:41.718Z,91.78
2024-01-15T11:17:10.944Z,91.72
2024-01-15T11:20:38.338Z,91.49
2024-01-15T11:24:08.052Z,91.22
2024-01-15T11:27:43.667Z,90.93
2024-01-15T11:31:15.556Z,89.97
2024-01-15T11:35:00.036Z,89.51
2024-01-15T11:38:32.349Z,90.18
2024-01-15T11:42:02.459Z,90.83
2024-01-15T11:45:32.359Z,90.70
2024-01-15T11:49:08.264Z,90.51
2024-01-15T11:52:38.834Z,90.65
2024-01-15T11:56:16.984Z,90.90
2024-01-15T11:59:45.153Z,90.55
2024-01-15T12:03:13.948Z,90.07
2024-01-15T12:06:42.297Z,91.80
2024-01-15T12:10:15.362Z,92.41
2024-01-15T12:13:43.865Z,92.84
2024-01-15T12:17:13.526Z,93.10
2024-01-15T12:20:41.873Z,92.30
2024-01-15T12:24:11.079Z,91.42
2024-01-15T12:27:40.247Z,91.29
2024-01-15T12:31:07.845Z,89.51
2024-01-15T12:34:34.890Z,88.53
2024-01-15T12:38:04.859Z,86.87
2024-01-15T12:41:32.071Z,85.77
2024-01-15T12:45:00.593Z,86.87
2024-01-15T12:48:27.731Z,86.94
2024-01-15T12:51:59.097Z,86.12
2024-01-15T12:55:26.155Z,86.44
2024-01-15T12:58:53.043Z,85.68
2024-01-15T13:02:19.953Z,84.43
2024-01-15T13:05:47.895Z,85.39
2024-01-15T13:09:15.827Z,84.18
2024-01-15T13:12:44.015Z,85.02
2024-01-15T13:16:12.058Z,84.83
2024-01-15T13:19:39.099Z,84.62
2024-01-15T13:23:06.222Z,85.06
2024-01-15T13:26:33.328Z,85.60
2024-01-15T13:30:01.525Z,86.03
2024-01-15T13:33:29.063Z,86.77
2024-01-15T13:36:57.151Z,86.39
2024-01-15T13:40:24.192Z,86.78
2024-01-15T13:43:54.107Z,87.26
2024-01-15T13:47:21.791Z,85.50
2024-01-15T13:50:48.955Z,84.45
2024-01-15T13:54:15.865Z,84.82
2024-01-15T13:57:43.373Z,84.89
2024-01-15T14:01:10.567Z,85.43
2024-01-15T14:04:37.534Z,86.20
2024-01-15T14:08:04.846Z,86.19
2024-01-15T14:11:31.724Z,86.48
2024-01-15T14:14:58.578Z,86.64
2024-01-15T14:18:25.516Z,86.26
2024-01-15T14:21:52.589Z,86.35
2024-01-15T14:25:21.644Z,85.81
2024-01-15T14:28:51.771Z,86.07
2024-01-15T14:32:19.374Z,85.77
2024-01-15T14:35:46.349Z,86.08
2024-01-15T14:39:13.466Z,86.24
2024-01-15T14:42:40.414Z,86.03
2024-01-15T14:46:07.702Z,86.56
2024-01-15T14:49:35.034Z,88.28
2024-01-15T14:53:02.017Z,90.53
2024-01-15T14:56:30.259Z,91.07
2024-01-15T14:59:57.176Z,91.75
2024-01-15T15:03:24.219Z,93.62
2024-01-15T15:06:51.434Z,94.39
2024-01-15T15:10:18.721Z,95.46
2024-01-15T15:13:47.417Z,95.57
2024-01-15T15:17:15.780Z,95.93
2024-01-15T15:20:43.167Z,96.77
2024-01-15T15:24:11.606Z,97.67
2024-01-15T15:27:38.910Z,97.34
2024-01-15T15:31:08.787Z,97.27
2024-01-15T15:34:36.333Z,97.53
2024-01-15T15:38:03.846Z,97.75
2024-01-15T15:41:30.828Z,97.88
2024-01-15T15:45:00.551Z,97.29
2024-01-15T15:48:29.300Z,97.67
2024-01-15T15:51:57.330Z,97.82
2024-01-15T15:55:25.139Z,97.58
2024-01-15T15:58:54.824Z,97.29
2024-01-15T16:02:22.974Z,97.49
2024-01-15T16:05:53.248Z,97.75
2024-01-15T16:09:21.355Z,97.31
2024-01-15T16:12:48.960Z,97.09
2024-01-15T16:23:10.413Z,97.11
2024-01-15T16:23:29.144Z,97.03
2024-01-15T16:24:12.766Z,96.65
2024-01-15T16:27:43.509Z,96.81
2024-01-15T16:31:11.368Z,96.72
2024-01-15T16:34:38.589Z,96.46
2024-01-15T16:38:06.070Z,96.54
2024-01-15T16:41:33.292Z,96.49
2024-01-15T16:45:00.346Z,96.45
2024-01-15T16:48:30.668Z,96.29
2024-01-15T16:51:57.566Z,96.23
2024-01-15T16:55:24.339Z,96.04
2024-01-15T16:58:51.464Z,95.88
2024-01-15T17:02:18.339Z,95.81
2024-01-15T17:05:45.154Z,95.97
2024-01-15T17:09:12.137Z,96.08
2024-01-15T17:12:39.587Z,96.02
2024-01-15T17:16:07.413Z,96.25
2024-01-15T17:19:34.533Z,96.33
2024-01-15T17:23:01.834Z,96.38
2024-01-15T17:26:29.047Z,96.36
2024-01-15T17:29:56.795Z,96.28
2024-01-15T17:33:24.134Z,96.20
2024-01-15T17:36:51.082Z,95.53
2024-01-15T17:40:18.590Z,94.22
2024-01-15T17:43:46.179Z,93.74
2024-01-15T17:47:13.930Z,92.27
2024-01-15T17:50:42.163Z,91.32
2024-01-15T17:54:12.285Z,89.60
2024-01-15T17:57:41.228Z,88.71
2024-01-15T18:01:12.577Z,88.74
2024-01-15T18:04:43.262Z,88.89
2024-01-15T18:08:14.917Z,88.45
2024-01-15T18:11:42.794Z,87.89
2024-01-15T18:15:12.833Z,87.34
2024-01-15T18:18:41.182Z,87.66
2024-01-15T18:22:10.531Z,87.33
2024-01-15T18:25:54.996Z,86.83
2024-01-15T18:29:29.963Z,87.06
2024-01-15T18:32:57.596Z,87.53
2024-01-15T18:36:30.901Z,87.33
2024-01-15T18:40:01.440Z,86.56
2024-01-15T18:43:42.771Z,86.60
2024-01-15T18:47:10.445Z,86.67
2024-01-15T18:50:40.922Z,86.81
2024-01-15T18:54:10.169Z,86.75
2024-01-15T18:57:43.276Z,86.77
2024-01-15T19:01:11.220Z,86.42
2024-01-15T19:04:41.428Z,86.18
2024-01-15T19:08:09.489Z,85.69
2024-01-15T19:11:36.743Z,85.73
2024-01-15T19:15:06.730Z,85.29
2024-01-15T19:18:35.096Z,85.27
2024-01-15T19:22:07.022Z,85.44
2024-01-15T19:25:39.200Z,85.53
2024-01-15T19:29:09.137Z,85.02
2024-01-15T19:32:36.258Z,85.09
2024-01-15T19:36:03.140Z,84.97
2024-01-15T19:39:30.008Z,85.05
2024-01-15T19:42:57.059Z,85.39
2024-01-15T19:46:23.951Z,85.48
2024-01-15T19:49:51.088Z,85.37
2024-01-15T19:53:18.000Z,84.93
2024-01-15T19:56:45.633Z,83.42
2024-01-15T20:00:14.170Z,82.66
2024-01-15T20:03:46.388Z,82.49
2024-01-15T20:07:13.946Z,81.13
2024-01-15T20:10:45.477Z,82.25
2024-01-15T20:14:13.506Z,82.19
2024-01-15T20:17:46.538Z,81.90
2024-01-15T20:21:16.092Z,81.30
2024-01-15T20:24:43.066Z,81.36
2024-01-15T20:28:11.759Z,80.93
2024-01-15T20:31:39.235Z,80.39
2024-01-15T20:35:06.592Z,79.32
2024-01-15T20:38:33.424Z,79.54
2024-01-15T20:42:00.252Z,80.15
2024-01-15T20:45:29.212Z,80.27
2024-01-15T20:48:57.776Z,80.77
2024-01-15T20:52:25.659Z,80.77
2024-01-15T20:55:52.900Z,80.15
2024-01-15T20:59:20.180Z,80.82
2024-01-15T21:02:47.352Z,81.09
2024-01-15T21:06:15.108Z,81.23
2024-01-15T21:09:42.038Z,80.54
2024-01-15T21:13:09.228Z,80.39
2024-01-15T21:16:36.127Z,80.40
2024-01-15T21:20:09.451Z,80.85
2024-01-15T21:23:36.683Z,80.72
2024-01-15T21:27:05.391Z,81.21
2024-01-15T21:30:36.904Z,81.35
2024-01-15T21:34:04.358Z,81.64
2024-01-15T21:37:32.471Z,81.92
2024-01-15T21:40:59.531Z,82.39
2024-01-15T21:44:26.779Z,82.36
2024-01-15T21:47:56.601Z,82.65
2024-01-15T21:51:23.851Z,82.88
2024-01-15T21:54:50.851Z,82.78
2024-01-15T21:58:18.596Z,83.17
2024-01-15T22:01:52.982Z,83.29
2024-01-15T22:05:23.405Z,83.20
2024-01-15T22:08:52.317Z,83.07
2024-01-15T22:12:19.421Z,82.94
2024-01-15T22:15:46.506Z,83.10
2024-01-15T22:19:13.549Z,82.95
2024-01-15T22:22:42.097Z,82.95
2024-01-15T22:26:10.978Z,82.93
2024-01-15T22:29:38.049Z,82.67
2024-01-15T22:33:05.464Z,82.81
2024-01-15T22:36:32.513Z,82.42
2024-01-15T22:39:59.547Z,82.11
2024-01-15T22:43:26.760Z,81.86
2024-01-15T22:46:53.654Z,81.68
2024-01-15T22:50:20.588Z,81.31
2024-01-15T22:53:51.619Z,81.09
2024-01-15T22:57:21.617Z,80.84
2024-01-15T23:00:50.315Z,80.88
2024-01-15T23:04:17.488Z,81.11
2024-01-15T23:07:44.378Z,81.21
2024-01-15T23:11:12.886Z,81.13
2024-01-15T23:14:39.717Z,81.02
2024-01-15T23:18:08.197Z,81.31
2024-01-15T23:21:35.391Z,81.10
2024-01-15T23:25:02.653Z,81.27
2024-01-15T23:28:29.607Z,81.16
2024-01-15T23:31:57.766Z,81.39
2024-01-15T23:35:24.594Z,81.32
2024-01-15T23:38:51.601Z,81.32
2024-01-15T23:42:18.403Z,81.62
2024-01-15T23:45:46.375Z,81.52
2024-01-15T23:49:14.755Z,81.67
2024-01-15T23:52:41.793Z,81.54
2024-01-15T23:56:10.737Z,81.64
2024-01-15T23:59:39.465Z,81.89
